Time;durP1;ratioP1;P1;durP2;ratioP2;P2;SDS_P1;SDS_P2;PMS_P1;PMS_P2;Temp;Humidity;BMP_temperature;BMP_pressure;BME280_temperature;BME280_humidity;BME280_pressure;Samples;Min_cycle;Max_cycle;Signal;HPM_P1;HPM_P2
2023/02/20 00:00:21;;;;;;;;;;;;;;;;;;5071085;28;19924;-67
2023/02/20 00:02:47;;;;;;;;;;;;;;;;;;5070457;28;19979;-67
2023/02/20 00:05:13;;;;;;;;;;;;;;;;;;5070424;28;20420;-67
2023/02/20 00:07:38;;;;;;;;;;;;;;;;;;5071418;28;19924;-69
2023/02/20 00:10:04;;;;;;;;;;;;;;;;;;5083958;28;19924;-67
2023/02/20 00:12:31;;;;;;;;;;;;;;;;;;5068342;28;20415;-68
2023/02/20 00:14:57;;;;;;;;;;;;;;;;;;5070599;28;19924;-68
2023/02/20 00:17:23;;;;;;;;;;;;;;;;;;5071165;28;19978;-67
2023/02/20 00:19:49;;;;;;;;;;;;;;;;;;5070618;28;20370;-67
2023/02/20 00:22:15;;;;;;;;;;;;;;;;;;5070859;28;19963;-68
2023/02/20 00:24:41;;;;;;;;;;;;;;;;;;5071657;28;20292;-68
2023/02/20 00:27:07;;;;;;;;;;;;;;;;;;5068215;28;19935;-68
2023/02/20 00:29:33;;;;;;;;;;;;;;;;;;5071288;28;19924;-68
2023/02/20 00:31:59;;;;;;;;;;;;;;;;;;5068281;28;19920;-67
2023/02/20 00:34:25;;;;;;;;;;;;;;;;;;5068789;28;19924;-67
2023/02/20 00:36:50;;;;;;;;;;;;;;;;;;5070452;28;20473;-68
2023/02/20 00:39:16;;;;;;;;;;;;;;;;;;5070944;28;19921;-69
2023/02/20 00:41:42;;;;;;;;;;;;;;;;;;5066368;28;20721;-68
2023/02/20 00:44:08;;;;;;;;;;;;;;;;;;5076765;28;19932;-68
2023/02/20 00:46:34;;;;;;;;;;;;;;;;;;5071832;28;19990;-68
2023/02/20 00:49:00;;;;;;;;;;;;;;;;;;5069037;28;19924;-68
2023/02/20 00:51:26;;;;;;;;;;;;;;;;;;5072240;28;19928;-68
2023/02/20 00:53:52;;;;;;;;;;;;;;;;;;5070053;28;19924;-67
2023/02/20 00:56:18;;;;;;;;;;;;;;;;;;5069643;28;20306;-67
2023/02/20 00:58:43;;;;;;;;;;;;;;;;;;5049847;28;19920;-67
2023/02/20 01:01:09;;;;;;;;;;;;;;;;;;5073527;28;19952;-68
2023/02/20 01:03:35;;;;;;;;;;;;;;;;;;5069803;28;19936;-67
2023/02/20 01:06:01;;;;;;;;;;;;;;;;;;5068624;28;19936;-68
2023/02/20 01:08:27;;;;;;;;;;;;;;;;;;5061067;28;20361;-68
2023/02/20 01:10:53;;;;;;;;;;;;;;;;;;5070266;28;19928;-68
2023/02/20 01:13:19;;;;;;;;;;;;;;;;;;5066454;28;20018;-67
2023/02/20 01:15:45;;;;;;;;;;;;;;;;;;5069066;28;19924;-67
2023/02/20 01:18:11;;;;;;;;;;;;;;;;;;5068738;28;19928;-67
2023/02/20 01:20:36;;;;;;;;;;;;;;;;;;5071135;28;20334;-67
2023/02/20 01:23:02;;;;;;;;;;;;;;;;;;5071310;28;20005;-68
2023/02/20 01:25:28;;;;;;;;;;;;;;;;;;5069207;28;20273;-68
2023/02/20 01:27:54;;;;;;;;;;;;;;;;;;5070007;28;19931;-67
2023/02/20 01:30:20;;;;;;;;;;;;;;;;;;5070072;28;19927;-68
2023/02/20 01:32:46;;;;;;;;;;;;;;;;;;5069737;28;20324;-67
2023/02/20 01:35:12;;;;;;;;;;;;;;;;;;5073724;28;19924;-67
2023/02/20 01:37:38;;;;;;;;;;;;;;;;;;5066882;28;20051;-67
2023/02/20 01:40:04;;;;;;;;;;;;;;;;;;5074261;28;19921;-68
2023/02/20 01:42:30;;;;;;;;;;;;;;;;;;5073863;28;19946;-67
2023/02/20 01:44:55;;;;;;;;;;;;;;;;;;5075543;28;19974;-67
2023/02/20 01:47:21;;;;;;;;;;;;;;;;;;5073619;28;19924;-67
2023/02/20 01:49:47;;;;;;;;;;;;;;;;;;5074822;28;19968;-67
2023/02/20 01:52:13;;;;;;;;;;;;;;;;;;5072044;28;19924;-67
2023/02/20 01:54:39;;;;;;;;;;;;;;;;;;5073267;28;19931;-67
2023/02/20 01:57:05;;;;;;;;;;;;;;;;;;5075549;28;19920;-67
2023/02/20 01:59:31;;;;;;;;;;;;;;;;;;5080692;28;19920;-67
2023/02/20 02:01:57;;;;;;;;;;;;;;;;;;5073981;28;20000;-67
2023/02/20 02:04:23;;;;;;;;;;;;;;;;;;5072021;28;19932;-67
2023/02/20 02:06:49;;;;;;;;;;;;;;;;;;5072870;28;19978;-67
2023/02/20 02:09:15;;;;;;;;;;;;;;;;;;5073297;28;19924;-67
2023/02/20 02:11:40;;;;;;;;;;;;;;;;;;5073477;28;20625;-67
2023/02/20 02:14:06;;;;;;;;;;;;;;;;;;5103258;28;19925;-68
2023/02/20 02:16:32;;;;;;;;;;;;;;;;;;5072771;28;20146;-68
2023/02/20 02:18:58;;;;;;;;;;;;;;;;;;5073320;28;20366;-67
2023/02/20 02:21:24;;;;;;;;;;;;;;;;;;5072181;28;19952;-67
2023/02/20 02:23:50;;;;;;;;;;;;;;;;;;5072946;28;20430;-67
2023/02/20 02:26:16;;;;;;;;;;;;;;;;;;5072562;28;19932;-67
2023/02/20 02:28:42;;;;;;;;;;;;;;;;;;5071938;28;20369;-68
2023/02/20 02:31:08;;;;;;;;;;;;;;;;;;5073176;28;19928;-68
2023/02/20 02:33:34;;;;;;;;;;;;;;;;;;5072376;28;19924;-67
2023/02/20 02:35:59;;;;;;;;;;;;;;;;;;5072936;28;19927;-67
2023/02/20 02:38:25;;;;;;;;;;;;;;;;;;5072083;28;19933;-67
2023/02/20 02:40:51;;;;;;;;;;;;;;;;;;5073291;28;19920;-67
2023/02/20 02:43:17;;;;;;;;;;;;;;;;;;5071435;28;19931;-68
2023/02/20 02:45:43;;;;;;;;;;;;;;;;;;5073235;28;19955;-67
2023/02/20 02:48:09;;;;;;;;;;;;;;;;;;5071351;28;19977;-68
2023/02/20 02:50:35;;;;;;;;;;;;;;;;;;5073206;28;20015;-67
2023/02/20 02:53:01;;;;;;;;;;;;;;;;;;5073425;28;19984;-67
2023/02/20 02:55:27;;;;;;;;;;;;;;;;;;5072749;28;20353;-68
2023/02/20 02:57:53;;;;;;;;;;;;;;;;;;5072784;28;19931;-68
2023/02/20 03:00:19;;;;;;;;;;;;;;;;;;5086165;28;19924;-67
2023/02/20 03:02:45;;;;;;;;;;;;;;;;;;5070320;28;20523;-67
2023/02/20 03:05:11;;;;;;;;;;;;;;;;;;5071499;28;19924;-67
2023/02/20 03:07:37;;;;;;;;;;;;;;;;;;5074016;28;19931;-67
2023/02/20 03:10:03;;;;;;;;;;;;;;;;;;5073210;28;19929;-67
2023/02/20 03:12:28;;;;;;;;;;;;;;;;;;5071729;28;19924;-67
2023/02/20 03:17:39;;;;;;;;;;;;;;;;;;5078450;28;19928;-67
2023/02/20 03:20:05;;;;;;;;;;;;;;;;;;5070351;28;19969;-68
2023/02/20 03:22:31;;;;;;;;;;;;;;;;;;5071460;28;19939;-68
2023/02/20 03:24:57;;;;;;;;;;;;;;;;;;5072848;28;19943;-68
2023/02/20 03:27:23;;;;;;;;;;;;;;;;;;5073388;28;20449;-68
2023/02/20 03:29:49;;;;;;;;;;;;;;;;;;5071565;28;19959;-67
2023/02/20 03:43:26;;;;;;;;;;;;;;;;;;5067022;28;19932;-68
2023/02/20 03:45:52;;;;;;;;;;;;;;;;;;5073129;28;20317;-68
2023/02/20 03:48:18;;;;;;;;;;;;;;;;;;5090338;28;19932;-67
2023/02/20 03:50:44;;;;;;;;;;;;;;;;;;5079497;28;19920;-68
2023/02/20 03:53:10;;;;;;;;;;;;;;;;;;5093777;28;20435;-68
2023/02/20 03:55:36;;;;;;;;;;;;;;;;;;5072915;28;20011;-68
2023/02/20 03:58:02;;;;;;;;;;;;;;;;;;5060919;28;20285;-67
2023/02/20 04:00:27;;;;;;;;;;;;;;;;;;5060749;28;19931;-68
2023/02/20 04:02:53;;;;;;;;;;;;;;;;;;5077224;28;20343;-67
2023/02/20 04:05:19;;;;;;;;;;;;;;;;;;5068067;28;19964;-67
2023/02/20 04:07:45;;;;;;;;;;;;;;;;;;5075256;28;19928;-67
2023/02/20 04:10:11;;;;;;;;;;;;;;;;;;5070978;28;19925;-66
2023/02/20 04:12:37;;;;;;;;;;;;;;;;;;5071047;28;20014;-67
2023/02/20 04:15:03;;;;;;;;;;;;;;;;;;5070159;28;19924;-68
2023/02/20 04:17:29;;;;;;;;;;;;;;;;;;5068299;28;19920;-68
2023/02/20 04:19:54;;;;;;;;;;;;;;;;;;5070816;28;19932;-68
2023/02/20 04:22:20;;;;;;;;;;;;;;;;;;5072233;28;20255;-68
2023/02/20 04:24:46;;;;;;;;;;;;;;;;;;5073249;28;19968;-67
2023/02/20 04:27:12;;;;;;;;;;;;;;;;;;5071952;28;20003;-68
2023/02/20 04:29:38;;;;;;;;;;;;;;;;;;5071028;28;19924;-68
2023/02/20 04:32:04;;;;;;;;;;;;;;;;;;5070381;28;19920;-68
2023/02/20 04:34:30;;;;;;;;;;;;;;;;;;5068244;28;19963;-68
2023/02/20 04:36:56;;;;;;;;;;;;;;;;;;5070916;28;19920;-69
2023/02/20 04:39:22;;;;;;;;;;;;;;;;;;5068379;28;19928;-68
2023/02/20 04:41:47;;;;;;;;;;;;;;;;;;5052048;28;19927;-68
2023/02/20 04:44:32;;;;;;;;;;;;;;;;;;5070653;28;19921;-69
2023/02/20 04:46:58;;;;;;;;;;;;;;;;;;5069941;28;19929;-68
2023/02/20 04:49:24;;;;;;;;;;;;;;;;;;5069446;28;19920;-68
2023/02/20 04:51:50;;;;;;;;;;;;;;;;;;5069906;28;19966;-69
2023/02/20 04:54:16;;;;;;;;;;;;;;;;;;5070154;28;20281;-69
2023/02/20 04:56:42;;;;;;;;;;;;;;;;;;5070449;28;19931;-69
2023/02/20 04:59:08;;;;;;;;;;;;;;;;;;5073377;28;19947;-68
2023/02/20 05:01:34;;;;;;;;;;;;;;;;;;5069997;28;19920;-69
2023/02/20 05:04:00;;;;;;;;;;;;;;;;;;5069129;28;19924;-68
2023/02/20 05:06:26;;;;;;;;;;;;;;;;;;5065651;28;19999;-68
2023/02/20 05:08:51;;;;;;;;;;;;;;;;;;5069944;28;20320;-69
2023/02/20 05:11:17;;;;;;;;;;;;;;;;;;5070183;28;19920;-68
2023/02/20 05:13:43;;;;;;;;;;;;;;;;;;5068195;28;19998;-68
2023/02/20 05:16:09;;;;;;;;;;;;;;;;;;5070428;28;19924;-69
2023/02/20 05:18:35;;;;;;;;;;;;;;;;;;5070592;28;19947;-69
2023/02/20 05:23:46;;;;;;;;;;;;;;;;;;5102066;28;19924;-68
2023/02/20 05:26:12;;;;;;;;;;;;;;;;;;5068095;28;19925;-68
2023/02/20 05:28:38;;;;;;;;;;;;;;;;;;5071484;28;19934;-69
2023/02/20 05:31:04;;;;;;;;;;;;;;;;;;5070972;28;19924;-68
2023/02/20 05:33:30;;;;;;;;;;;;;;;;;;5076288;28;20315;-69
2023/02/20 05:35:56;;;;;;;;;;;;;;;;;;5069276;28;19921;-69
2023/02/20 05:38:22;;;;;;;;;;;;;;;;;;5065012;28;19921;-68
2023/02/20 05:40:48;;;;;;;;;;;;;;;;;;5069114;28;19932;-68
2023/02/20 05:43:13;;;;;;;;;;;;;;;;;;5070006;28;19920;-69
2023/02/20 05:45:39;;;;;;;;;;;;;;;;;;5069716;28;19920;-68
2023/02/20 05:48:05;;;;;;;;;;;;;;;;;;5070130;28;20376;-68
2023/02/20 05:50:31;;;;;;;;;;;;;;;;;;5071876;28;20007;-68
2023/02/20 05:52:57;;;;;;;;;;;;;;;;;;5066002;28;20293;-68
2023/02/20 05:55:23;;;;;;;;;;;;;;;;;;5068998;28;19924;-68
2023/02/20 05:57:49;;;;;;;;;;;;;;;;;;5069205;28;19920;-68
2023/02/20 06:00:15;;;;;;;;;;;;;;;;;;5068583;28;20005;-68
2023/02/20 06:02:40;;;;;;;;;;;;;;;;;;5067429;28;19924;-68
2023/02/20 06:05:06;;;;;;;;;;;;;;;;;;5068165;28;19925;-68
2023/02/20 06:07:32;;;;;;;;;;;;;;;;;;5073987;28;19929;-69
2023/02/20 06:09:58;;;;;;;;;;;;;;;;;;5048488;28;19932;-68
2023/02/20 06:12:24;;;;;;;;;;;;;;;;;;5068810;28;19925;-68
2023/02/20 06:14:50;;;;;;;;;;;;;;;;;;5068032;28;19921;-68
2023/02/20 06:17:16;;;;;;;;;;;;;;;;;;5067147;28;19927;-68
2023/02/20 06:19:42;;;;;;;;;;;;;;;;;;5068950;28;19927;-68
2023/02/20 06:22:08;;;;;;;;;;;;;;;;;;5069711;28;19928;-69
2023/02/20 06:24:34;;;;;;;;;;;;;;;;;;5072173;28;19940;-68
2023/02/20 06:27:00;;;;;;;;;;;;;;;;;;5071251;28;20297;-69
2023/02/20 06:29:26;;;;;;;;;;;;;;;;;;5071851;28;19930;-69
2023/02/20 06:31:51;;;;;;;;;;;;;;;;;;5070166;28;20561;-68
2023/02/20 06:34:17;;;;;;;;;;;;;;;;;;5070698;28;19920;-71
2023/02/20 06:36:43;;;;;;;;;;;;;;;;;;5073676;28;20011;-68
2023/02/20 06:39:09;;;;;;;;;;;;;;;;;;5072172;28;20002;-68
2023/02/20 06:41:35;;;;;;;;;;;;;;;;;;5075677;28;20511;-68
2023/02/20 06:44:01;;;;;;;;;;;;;;;;;;5069718;28;19920;-69
2023/02/20 06:46:27;;;;;;;;;;;;;;;;;;5072429;28;19925;-68
2023/02/20 06:48:53;;;;;;;;;;;;;;;;;;5075528;28;20023;-69
2023/02/20 06:51:19;;;;;;;;;;;;;;;;;;5071002;28;20043;-68
2023/02/20 06:53:45;;;;;;;;;;;;;;;;;;5071547;28;19921;-68
2023/02/20 06:56:11;;;;;;;;;;;;;;;;;;5068699;28;19928;-68
2023/02/20 06:58:36;;;;;;;;;;;;;;;;;;5069314;28;19967;-68
2023/02/20 07:01:02;;;;;;;;;;;;;;;;;;5065088;28;19925;-68
2023/02/20 07:03:28;;;;;;;;;;;;;;;;;;5068692;28;19921;-68
2023/02/20 07:05:54;;;;;;;;;;;;;;;;;;5072503;28;19932;-68
2023/02/20 07:08:20;;;;;;;;;;;;;;;;;;5072608;28;19965;-68
2023/02/20 07:10:46;;;;;;;;;;;;;;;;;;5072258;28;19924;-67
2023/02/20 07:13:12;;;;;;;;;;;;;;;;;;5069615;28;19928;-70
2023/02/20 07:15:38;;;;;;;;;;;;;;;;;;5103813;28;19921;-68
2023/02/20 07:18:03;;;;;;;;;;;;;;;;;;5069918;28;20392;-69
2023/02/20 07:20:29;;;;;;;;;;;;;;;;;;5067558;28;19968;-68
2023/02/20 07:22:55;;;;;;;;;;;;;;;;;;5070002;28;19920;-68
2023/02/20 07:25:21;;;;;;;;;;;;;;;;;;5072435;28;19921;-68
2023/02/20 07:27:47;;;;;;;;;;;;;;;;;;5052232;28;19925;-68
2023/02/20 07:30:13;;;;;;;;;;;;;;;;;;5071417;28;20279;-68
2023/02/20 07:32:39;;;;;;;;;;;;;;;;;;5091566;22;20236;-65
2023/02/20 07:35:05;;;;;;;;;;;;;;;;;;5113505;28;19920;-65
2023/02/20 07:37:31;;;;;;;;;;;;;;;;;;5112556;28;19924;-65
2023/02/20 07:39:57;;;;;;;;;;;;;;;;;;5105438;28;19931;-65
2023/02/20 07:42:23;;;;;;;;;;;;;;;;;;5109338;28;20720;-65
2023/02/20 07:44:48;;;;;;;;;;;;;;;;;;5107137;27;19920;-65
2023/02/20 07:47:14;;;;;;;;;;;;;;;;;;5111997;28;19924;-66
2023/02/20 07:49:40;;;;;;;;;;;;;;;;;;5100643;28;19974;-65
2023/02/20 07:52:06;;;;;;;;;;;;;;;;;;5100788;28;19927;-66
2023/02/20 07:54:32;;;;;;;;;;;;;;;;;;5095205;28;19962;-64
2023/02/20 07:56:58;;;;;;;;;;;;;;;;;;5089747;28;20391;-64
2023/02/20 07:59:24;;;;;;;;;;;;;;;;;;5108724;28;20007;-65
2023/02/20 08:01:50;;;;;;;;;;;;;;;;;;5090376;28;19920;-65
2023/02/20 08:04:16;;;;;;;;;;;;;;;;;;5095489;28;20507;-65
2023/02/20 08:06:41;;;;;;;;;;;;;;;;;;5112445;28;19928;-65
2023/02/20 08:09:07;;;;;;;;;;;;;;;;;;5078891;28;19924;-65
2023/02/20 08:11:33;;;;;;;;;;;;;;;;;;5105799;28;19931;-65
2023/02/20 08:13:59;;;;;;;;;;;;;;;;;;5093500;28;19980;-66
2023/02/20 08:16:25;;;;;;;;;;;;;;;;;;5104404;28;19951;-66
2023/02/20 08:18:51;;;;;;;;;;;;;;;;;;5107087;28;19928;-66
2023/02/20 08:21:17;;;;;;;;;;;;;;;;;;5113032;28;19926;-66
2023/02/20 08:23:43;;;;;;;;;;;;;;;;;;5094439;28;20005;-66
2023/02/20 08:26:09;;;;;;;;;;;;;;;;;;5092881;28;19924;-66
2023/02/20 08:28:35;;;;;;;;;;;;;;;;;;5093464;28;20010;-65
2023/02/20 08:31:01;;;;;;;;;;;;;;;;;;5093247;28;20007;-65
2023/02/20 08:33:27;;;;;;;;;;;;;;;;;;5075842;28;19974;-65
2023/02/20 08:35:54;;;;;;;;;;;;;;;;;;5108757;28;19926;-65
2023/02/20 08:38:20;;;;;;;;;;;;;;;;;;5105112;28;19920;-65
2023/02/20 08:40:45;;;;;;;;;;;;;;;;;;5112271;28;20427;-66
2023/02/20 08:43:11;;;;;;;;;;;;;;;;;;5093301;28;19931;-65
2023/02/20 08:45:37;;;;;;;;;;;;;;;;;;5093091;28;20335;-66
2023/02/20 08:48:03;;;;;;;;;;;;;;;;;;5092766;28;19935;-66
2023/02/20 08:50:29;;;;;;;;;;;;;;;;;;5100160;28;19924;-66
2023/02/20 08:52:55;;;;;;;;;;;;;;;;;;5094636;28;19955;-66
2023/02/20 08:55:21;;;;;;;;;;;;;;;;;;5113132;28;19924;-66
2023/02/20 08:57:47;;;;;;;;;;;;;;;;;;5077739;28;20373;-66
2023/02/20 09:00:13;;;;;;;;;;;;;;;;;;5112603;28;19995;-66
2023/02/20 09:02:39;;;;;;;;;;;;;;;;;;5082488;28;19924;-66
2023/02/20 09:05:05;;;;;;;;;;;;;;;;;;5097704;28;19923;-66
2023/02/20 09:07:31;;;;;;;;;;;;;;;;;;5073785;28;20392;-66
2023/02/20 09:09:57;;;;;;;;;;;;;;;;;;5112199;28;19928;-66
2023/02/20 09:12:22;;;;;;;;;;;;;;;;;;5112668;28;19919;-66
2023/02/20 09:14:48;;;;;;;;;;;;;;;;;;5090918;28;20274;-66
2023/02/20 09:17:14;;;;;;;;;;;;;;;;;;5092466;28;19927;-66
2023/02/20 09:19:40;;;;;;;;;;;;;;;;;;5101715;28;19927;-66
2023/02/20 09:22:06;;;;;;;;;;;;;;;;;;5111938;28;19924;-66
2023/02/20 09:24:33;;;;;;;;;;;;;;;;;;5094607;28;19924;-64
2023/02/20 09:26:58;;;;;;;;;;;;;;;;;;5096521;28;20023;-63
2023/02/20 09:29:24;;;;;;;;;;;;;;;;;;5066720;28;20014;-64
2023/02/20 09:31:50;;;;;;;;;;;;;;;;;;5112118;28;19924;-64
2023/02/20 09:34:16;;;;;;;;;;;;;;;;;;5107110;28;19930;-65
2023/02/20 09:36:42;;;;;;;;;;;;;;;;;;5111990;28;19923;-65
2023/02/20 09:39:08;;;;;;;;;;;;;;;;;;5111611;28;20427;-64
2023/02/20 09:41:34;;;;;;;;;;;;;;;;;;5093330;28;19924;-64
2023/02/20 09:44:00;;;;;;;;;;;;;;;;;;5111796;28;19927;-65
2023/02/20 09:46:26;;;;;;;;;;;;;;;;;;5103341;28;19924;-66
2023/02/20 09:48:51;;;;;;;;;;;;;;;;;;5100988;28;19926;-65
2023/02/20 09:51:17;;;;;;;;;;;;;;;;;;5096049;28;20357;-64
2023/02/20 09:53:43;;;;;;;;;;;;;;;;;;5111966;28;19920;-64
2023/02/20 09:56:09;;;;;;;;;;;;;;;;;;5097422;28;19973;-64
2023/02/20 09:58:35;;;;;;;;;;;;;;;;;;5092296;28;20261;-64
2023/02/20 10:01:01;;;;;;;;;;;;;;;;;;5078546;28;19936;-65
2023/02/20 10:03:29;;;;;;;;;;;;;;;;;;5107581;28;19920;-65
2023/02/20 10:05:55;;;;;;;;;;;;;;;;;;5086562;28;19920;-65
2023/02/20 10:08:22;;;;;;;;;;;;;;;;;;5115637;28;20364;-65
2023/02/20 10:10:48;;;;;;;;;;;;;;;;;;5116063;28;19973;-65
2023/02/20 10:13:14;;;;;;;;;;;;;;;;;;5115883;28;19920;-65
2023/02/20 10:15:40;;;;;;;;;;;;;;;;;;5089484;28;19998;-65
2023/02/20 10:18:06;;;;;;;;;;;;;;;;;;5097485;28;20035;-65
2023/02/20 10:20:32;;;;;;;;;;;;;;;;;;5114474;28;19920;-66
2023/02/20 10:22:58;;;;;;;;;;;;;;;;;;5115167;28;19920;-66
2023/02/20 10:25:24;;;;;;;;;;;;;;;;;;5115966;28;20390;-65
2023/02/20 10:27:50;;;;;;;;;;;;;;;;;;5113084;28;19971;-65
2023/02/20 10:30:16;;;;;;;;;;;;;;;;;;5089640;28;19946;-66
2023/02/20 10:32:41;;;;;;;;;;;;;;;;;;5096270;28;19935;-66
2023/02/20 10:35:07;;;;;;;;;;;;;;;;;;5110996;28;19947;-65
2023/02/20 10:37:33;;;;;;;;;;;;;;;;;;5100273;28;19996;-65
2023/02/20 10:39:59;;;;;;;;;;;;;;;;;;5088413;28;20571;-65
2023/02/20 10:42:25;;;;;;;;;;;;;;;;;;5113100;28;19955;-65
2023/02/20 10:44:51;;;;;;;;;;;;;;;;;;5115957;28;19977;-66
2023/02/20 10:47:17;;;;;;;;;;;;;;;;;;5115458;28;19927;-65
2023/02/20 10:49:43;;;;;;;;;;;;;;;;;;5095142;28;19942;-65
2023/02/20 10:52:09;;;;;;;;;;;;;;;;;;5094869;28;19927;-65
2023/02/20 10:54:35;;;;;;;;;;;;;;;;;;5093639;28;20060;-65
2023/02/20 10:57:01;;;;;;;;;;;;;;;;;;5115053;28;20354;-65
2023/02/20 10:59:26;;;;;;;;;;;;;;;;;;5115341;28;19927;-65
2023/02/20 11:01:52;;;;;;;;;;;;;;;;;;5115548;28;20360;-65
2023/02/20 11:04:18;;;;;;;;;;;;;;;;;;5115444;28;19920;-66
2023/02/20 11:06:44;;;;;;;;;;;;;;;;;;5115182;28;20360;-66
2023/02/20 11:09:10;;;;;;;;;;;;;;;;;;5115095;28;19920;-65
2023/02/20 11:11:38;;;;;;;;;;;;;;;;;;5111524;28;19926;-65
2023/02/20 11:14:04;;;;;;;;;;;;;;;;;;5110670;28;19920;-65
2023/02/20 11:16:30;;;;;;;;;;;;;;;;;;5112405;28;19920;-65
2023/02/20 11:18:56;;;;;;;;;;;;;;;;;;5096626;28;19969;-65
2023/02/20 11:21:22;;;;;;;;;;;;;;;;;;5108018;28;19924;-65
2023/02/20 11:23:48;;;;;;;;;;;;;;;;;;5095244;28;19919;-65
2023/02/20 11:26:14;;;;;;;;;;;;;;;;;;5102647;28;20010;-65
2023/02/20 11:28:40;;;;;;;;;;;;;;;;;;5111838;28;20365;-65
2023/02/20 11:31:06;;;;;;;;;;;;;;;;;;5096190;28;19968;-65
2023/02/20 11:33:31;;;;;;;;;;;;;;;;;;5091128;28;19944;-65
2023/02/20 11:35:57;;;;;;;;;;;;;;;;;;5104138;28;19926;-65
2023/02/20 11:38:23;;;;;;;;;;;;;;;;;;5114792;28;19931;-65
2023/02/20 11:40:49;;;;;;;;;;;;;;;;;;5114412;28;20006;-65
2023/02/20 11:43:15;;;;;;;;;;;;;;;;;;5114410;28;19924;-66
2023/02/20 11:45:41;;;;;;;;;;;;;;;;;;5094369;28;20260;-66
2023/02/20 11:48:07;;;;;;;;;;;;;;;;;;5075753;28;19935;-65
2023/02/20 11:50:33;;;;;;;;;;;;;;;;;;5094317;28;19969;-66
2023/02/20 11:52:59;;;;;;;;;;;;;;;;;;5080963;28;19928;-65
2023/02/20 11:55:25;;;;;;;;;;;;;;;;;;5075554;28;19958;-65
2023/02/20 11:57:51;;;;;;;;;;;;;;;;;;5093925;28;19928;-66
2023/02/20 12:00:18;;;;;;;;;;;;;;;;;;5113287;28;19926;-65
2023/02/20 12:02:44;;;;;;;;;;;;;;;;;;5111410;28;19924;-66
2023/02/20 12:05:10;;;;;;;;;;;;;;;;;;5099384;28;19927;-66
2023/02/20 12:07:36;;;;;;;;;;;;;;;;;;5114088;28;19924;-65
2023/02/20 12:10:02;;;;;;;;;;;;;;;;;;5114021;28;20713;-65
2023/02/20 12:12:28;;;;;;;;;;;;;;;;;;5114234;28;19969;-64
2023/02/20 12:14:54;;;;;;;;;;;;;;;;;;5111848;28;20341;-65
2023/02/20 12:17:20;;;;;;;;;;;;;;;;;;5113180;28;19973;-64
2023/02/20 12:19:46;;;;;;;;;;;;;;;;;;5111933;28;19988;-65
2023/02/20 12:22:13;;;;;;;;;;;;;;;;;;5080100;28;19923;-65
2023/02/20 12:24:39;;;;;;;;;;;;;;;;;;5093939;28;19920;-65
2023/02/20 12:27:05;;;;;;;;;;;;;;;;;;5113409;28;20401;-65
2023/02/20 12:29:31;;;;;;;;;;;;;;;;;;5113611;28;19963;-65
2023/02/20 12:31:57;;;;;;;;;;;;;;;;;;5111199;28;19972;-65
2023/02/20 12:34:23;;;;;;;;;;;;;;;;;;5090953;28;20289;-65
2023/02/20 12:36:49;;;;;;;;;;;;;;;;;;5072082;28;20011;-65
2023/02/20 12:39:15;;;;;;;;;;;;;;;;;;5072518;28;20385;-65
2023/02/20 12:41:41;;;;;;;;;;;;;;;;;;5054694;28;19929;-64
2023/02/20 12:44:07;;;;;;;;;;;;;;;;;;5072639;28;19931;-65
2023/02/20 12:46:33;;;;;;;;;;;;;;;;;;5087962;28;19930;-65
2023/02/20 12:48:59;;;;;;;;;;;;;;;;;;5092827;28;20426;-64
2023/02/20 12:51:25;;;;;;;;;;;;;;;;;;5097269;28;19923;-66
2023/02/20 12:53:51;;;;;;;;;;;;;;;;;;5108639;28;19985;-65
2023/02/20 12:56:17;;;;;;;;;;;;;;;;;;5092597;28;19920;-65
2023/02/20 12:58:42;;;;;;;;;;;;;;;;;;5092857;28;19927;-65
2023/02/20 13:01:09;;;;;;;;;;;;;;;;;;5057493;28;20886;-65
2023/02/20 13:03:34;;;;;;;;;;;;;;;;;;5069858;28;19921;-65
2023/02/20 13:06:00;;;;;;;;;;;;;;;;;;5072002;28;20229;-65
2023/02/20 13:08:26;;;;;;;;;;;;;;;;;;5092332;28;19920;-65
2023/02/20 13:10:52;;;;;;;;;;;;;;;;;;5092326;28;19974;-65
2023/02/20 13:13:18;;;;;;;;;;;;;;;;;;5092142;28;20277;-65
2023/02/20 13:15:44;;;;;;;;;;;;;;;;;;5092033;28;19927;-65
2023/02/20 13:18:10;;;;;;;;;;;;;;;;;;5092432;28;19927;-65
2023/02/20 13:20:37;;;;;;;;;;;;;;;;;;5092313;28;20017;-66
2023/02/20 13:23:03;;;;;;;;;;;;;;;;;;5091515;28;20431;-66
2023/02/20 13:25:29;;;;;;;;;;;;;;;;;;5090822;28;20533;-66
2023/02/20 13:27:55;;;;;;;;;;;;;;;;;;5091452;28;20010;-66
2023/02/20 13:30:21;;;;;;;;;;;;;;;;;;5089326;28;19924;-66
2023/02/20 13:32:46;;;;;;;;;;;;;;;;;;5094578;28;19931;-66
2023/02/20 13:35:12;;;;;;;;;;;;;;;;;;5112259;28;20420;-65
2023/02/20 13:37:39;;;;;;;;;;;;;;;;;;5112397;28;19930;-65
2023/02/20 13:40:05;;;;;;;;;;;;;;;;;;5102578;28;19948;-65
2023/02/20 13:42:31;;;;;;;;;;;;;;;;;;5094560;28;20745;-65
2023/02/20 13:44:58;;;;;;;;;;;;;;;;;;5093912;28;19920;-66
2023/02/20 13:47:24;;;;;;;;;;;;;;;;;;5107620;28;20396;-65
2023/02/20 13:49:50;;;;;;;;;;;;;;;;;;5093384;28;19924;-65
2023/02/20 13:52:16;;;;;;;;;;;;;;;;;;5112320;28;19979;-66
2023/02/20 13:54:43;;;;;;;;;;;;;;;;;;5102054;28;21283;-66
2023/02/20 13:57:09;;;;;;;;;;;;;;;;;;5093198;28;19927;-66
2023/02/20 13:59:37;;;;;;;;;;;;;;;;;;5095116;28;19920;-65
2023/02/20 14:02:03;;;;;;;;;;;;;;;;;;5092817;28;19946;-65
2023/02/20 14:04:29;;;;;;;;;;;;;;;;;;5094709;28;19920;-65
2023/02/20 14:06:55;;;;;;;;;;;;;;;;;;5100731;28;19935;-66
2023/02/20 14:09:23;;;;;;;;;;;;;;;;;;5112494;28;19977;-65
2023/02/20 14:11:51;;;;;;;;;;;;;;;;;;5103380;28;20300;-65
2023/02/20 14:14:17;;;;;;;;;;;;;;;;;;5111412;28;20462;-65
2023/02/20 14:16:45;;;;;;;;;;;;;;;;;;5112181;28;20024;-66
2023/02/20 14:19:11;;;;;;;;;;;;;;;;;;5112157;28;19984;-66
2023/02/20 14:21:37;;;;;;;;;;;;;;;;;;5112274;28;19920;-66
2023/02/20 14:24:03;;;;;;;;;;;;;;;;;;5111288;28;20302;-66
2023/02/20 14:26:29;;;;;;;;;;;;;;;;;;5110802;28;19923;-65
2023/02/20 14:28:55;;;;;;;;;;;;;;;;;;5112211;28;20280;-66
2023/02/20 14:31:21;;;;;;;;;;;;;;;;;;5112123;28;19989;-65
2023/02/20 14:33:46;;;;;;;;;;;;;;;;;;5112021;28;20321;-65
2023/02/20 14:36:12;;;;;;;;;;;;;;;;;;5111943;28;20413;-66
2023/02/20 14:38:38;;;;;;;;;;;;;;;;;;5092955;28;20007;-66
2023/02/20 14:41:04;;;;;;;;;;;;;;;;;;5111108;28;19926;-66
2023/02/20 14:43:30;;;;;;;;;;;;;;;;;;5111920;28;19967;-65
2023/02/20 14:45:56;;;;;;;;;;;;;;;;;;5113700;28;20341;-65
2023/02/20 14:48:22;;;;;;;;;;;;;;;;;;5096220;28;19928;-65
2023/02/20 14:50:48;;;;;;;;;;;;;;;;;;5114728;28;19997;-66
2023/02/20 14:53:14;;;;;;;;;;;;;;;;;;5096086;28;19927;-65
2023/02/20 14:55:40;;;;;;;;;;;;;;;;;;5114867;28;19923;-66
2023/02/20 14:58:06;;;;;;;;;;;;;;;;;;5099135;28;19927;-66
2023/02/20 15:00:32;;;;;;;;;;;;;;;;;;5094003;28;19920;-66
2023/02/20 15:02:58;;;;;;;;;;;;;;;;;;5098388;28;19920;-66
2023/02/20 15:05:24;;;;;;;;;;;;;;;;;;5115246;28;19927;-66
2023/02/20 15:07:50;;;;;;;;;;;;;;;;;;5115340;28;19977;-65
2023/02/20 15:10:16;;;;;;;;;;;;;;;;;;5097064;28;20365;-65
2023/02/20 15:12:41;;;;;;;;;;;;;;;;;;5115063;28;19931;-66
2023/02/20 15:15:07;;;;;;;;;;;;;;;;;;5115032;28;20389;-66
2023/02/20 15:17:33;;;;;;;;;;;;;;;;;;5096048;28;19919;-66
2023/02/20 15:20:00;;;;;;;;;;;;;;;;;;5097015;28;19920;-66
2023/02/20 15:22:26;;;;;;;;;;;;;;;;;;5114849;28;19934;-66
2023/02/20 15:24:52;;;;;;;;;;;;;;;;;;5114447;28;19920;-66
2023/02/20 15:27:18;;;;;;;;;;;;;;;;;;5113231;28;19969;-64
2023/02/20 15:29:44;;;;;;;;;;;;;;;;;;5115118;28;19930;-66
2023/02/20 15:32:10;;;;;;;;;;;;;;;;;;5114834;28;19924;-66
2023/02/20 15:34:35;;;;;;;;;;;;;;;;;;5114439;28;19931;-64
2023/02/20 15:37:02;;;;;;;;;;;;;;;;;;5096514;28;20424;-65
2023/02/20 15:39:28;;;;;;;;;;;;;;;;;;5096223;28;20294;-65
2023/02/20 15:41:54;;;;;;;;;;;;;;;;;;5096575;28;19920;-65
2023/02/20 15:44:21;;;;;;;;;;;;;;;;;;5114221;28;19926;-65
2023/02/20 15:46:46;;;;;;;;;;;;;;;;;;5096305;28;19927;-65
2023/02/20 15:49:12;;;;;;;;;;;;;;;;;;5095930;28;20400;-65
2023/02/20 15:51:38;;;;;;;;;;;;;;;;;;5114789;28;19927;-65
2023/02/20 15:54:04;;;;;;;;;;;;;;;;;;5114312;28;19951;-65
2023/02/20 15:56:30;;;;;;;;;;;;;;;;;;5113059;28;20284;-65
2023/02/20 15:58:56;;;;;;;;;;;;;;;;;;5109073;28;19920;-65
2023/02/20 16:01:22;;;;;;;;;;;;;;;;;;5108872;28;19927;-65
2023/02/20 16:03:48;;;;;;;;;;;;;;;;;;5087144;28;19935;-64
2023/02/20 16:06:14;;;;;;;;;;;;;;;;;;5087802;28;20022;-65
2023/02/20 16:08:39;;;;;;;;;;;;;;;;;;5108189;28;19999;-64
2023/02/20 16:11:05;;;;;;;;;;;;;;;;;;5093087;28;19928;-65
2023/02/20 16:13:31;;;;;;;;;;;;;;;;;;5113285;28;19928;-65
2023/02/20 16:15:57;;;;;;;;;;;;;;;;;;5094187;28;19931;-65
2023/02/20 16:18:23;;;;;;;;;;;;;;;;;;5106636;27;19927;-66
2023/02/20 16:20:49;;;;;;;;;;;;;;;;;;5110534;28;19927;-65
2023/02/20 16:23:15;;;;;;;;;;;;;;;;;;5113769;28;20342;-66
2023/02/20 16:25:41;;;;;;;;;;;;;;;;;;5113665;28;20250;-66
2023/02/20 16:28:07;;;;;;;;;;;;;;;;;;5090259;28;19969;-66
2023/02/20 16:30:36;;;;;;;;;;;;;;;;;;5101799;28;20324;-66
2023/02/20 16:33:02;;;;;;;;;;;;;;;;;;5084808;28;20007;-66
2023/02/20 16:35:28;;;;;;;;;;;;;;;;;;5103948;28;20299;-66
2023/02/20 16:37:54;;;;;;;;;;;;;;;;;;5110827;28;19919;-66
2023/02/20 16:40:20;;;;;;;;;;;;;;;;;;5110724;28;19920;-66
2023/02/20 16:42:46;;;;;;;;;;;;;;;;;;5113458;28;20014;-65
2023/02/20 16:45:12;;;;;;;;;;;;;;;;;;5095152;28;19941;-65
2023/02/20 16:47:38;;;;;;;;;;;;;;;;;;5107303;27;19924;-66
2023/02/20 16:50:06;;;;;;;;;;;;;;;;;;5091464;28;20305;-66
2023/02/20 16:52:32;;;;;;;;;;;;;;;;;;5101544;27;19930;-66